Aeropuerto Internacional Ezeiza/Ministro Pistarini (EZE/SAEZ)


Airport Information
Location: Buenos Aires,
Coordinates: -34.8222 / -58.5358
Field Elevation: 64ft
Longest Runway: 10,785ft
ILS Approaches: YES
Landing Fees: $798 per flight
Jet A Price: $0.49/lbs

Current Weather
METAR: SAEZ 011035Z 11002KT 3000 MIFG BR NSC 09/08 Q1021 NOSIG
TAF: TAF AMD SAEZ 010820Z 0109/0206 VRB02KT 7000 MIFG NSC TX25/0119Z TN04/0109Z TEMPO 0109/0112 0800 FG BECMG 0112/0114 CAVOK BECMG 0118/0120 06005KT

No chart available
Flight Arriving
CPX734 KMIA - Miami International Airport
United StatesFlorida Miami, Florida
Flight Aircraft Departing
CPX795
KMIA - Miami International Airport
United StatesFlorida Miami, Florida



Recent Arrivals
Date Flight Type Depart
07/23/2022 CPX795 B744 Miami Intl (KMIA)
07/13/2022 CPX795 B744 Miami Intl (KMIA)
07/11/2022 CPX795 B744 Miami Intl (KMIA)
05/10/2019 CPX799 B744 Miami Intl (KMIA)
Recent Departures
Date Flight Type Arrive
07/24/2022 CPX734 B744 Miami Intl (KMIA)
07/14/2022 CPX734 B744 Miami Intl (KMIA)
07/12/2022 CPX734 B744 Miami Intl (KMIA)
05/11/2019 CPX794 B744 Miami Intl (KMIA)